sensor_id;sensor_type;location;lat;lon;timestamp;pressure;altitude;pressure_sealevel;temperature;humidity
71107;BME280;58763;47.982;11.516;2023-04-19T00:00:40;94538.56;;;8.54;85.64
71107;BME280;58763;47.982;11.516;2023-04-19T00:03:06;94542.38;;;8.58;85.06
71107;BME280;58763;47.982;11.516;2023-04-19T00:05:32;94534.53;;;8.57;85.07
71107;BME280;58763;47.982;11.516;2023-04-19T00:07:58;94531.31;;;8.55;85.17
71107;BME280;58763;47.982;11.516;2023-04-19T00:10:24;94531.88;;;8.62;84.53
71107;BME280;58763;47.982;11.516;2023-04-19T00:12:50;94536.72;;;8.60;84.76
71107;BME280;58763;47.982;11.516;2023-04-19T00:15:16;94529.69;;;8.54;84.80
71107;BME280;58763;47.982;11.516;2023-04-19T00:17:41;94533.19;;;8.49;85.07
71107;BME280;58763;47.982;11.516;2023-04-19T00:20:09;94531.28;;;8.50;85.01
71107;BME280;58763;47.982;11.516;2023-04-19T00:22:35;94529.16;;;8.57;84.95
71107;BME280;58763;47.982;11.516;2023-04-19T00:25:01;94524.84;;;8.56;84.95
71107;BME280;58763;47.982;11.516;2023-04-19T00:27:26;94525.09;;;8.54;85.11
71107;BME280;58763;47.982;11.516;2023-04-19T00:29:52;94527.25;;;8.52;85.32
71107;BME280;58763;47.982;11.516;2023-04-19T00:32:17;94527.03;;;8.59;84.83
71107;BME280;58763;47.982;11.516;2023-04-19T00:34:43;94515.94;;;8.55;85.12
71107;BME280;58763;47.982;11.516;2023-04-19T00:37:08;94516.47;;;8.52;85.21
71107;BME280;58763;47.982;11.516;2023-04-19T00:39:35;94515.69;;;8.57;85.30
71107;BME280;58763;47.982;11.516;2023-04-19T00:42:00;94513.78;;;8.57;85.06
71107;BME280;58763;47.982;11.516;2023-04-19T00:44:26;94518.16;;;8.63;84.43
71107;BME280;58763;47.982;11.516;2023-04-19T00:46:52;94515.69;;;8.62;84.54
71107;BME280;58763;47.982;11.516;2023-04-19T00:49:19;94507.88;;;8.60;84.70
71107;BME280;58763;47.982;11.516;2023-04-19T00:51:45;94506.81;;;8.56;84.88
71107;BME280;58763;47.982;11.516;2023-04-19T00:54:13;94507.59;;;8.62;84.60
71107;BME280;58763;47.982;11.516;2023-04-19T00:56:39;94509.75;;;8.60;84.66
71107;BME280;58763;47.982;11.516;2023-04-19T00:59:05;94510.84;;;8.64;84.05
71107;BME280;58763;47.982;11.516;2023-04-19T01:01:31;94511.91;;;8.53;84.69
71107;BME280;58763;47.982;11.516;2023-04-19T01:03:57;94511.03;;;8.37;84.54
71107;BME280;58763;47.982;11.516;2023-04-19T01:06:22;94500.97;;;8.22;85.56
71107;BME280;58763;47.982;11.516;2023-04-19T01:08:48;94509.09;;;8.27;85.41
71107;BME280;58763;47.982;11.516;2023-04-19T01:11:13;94511.72;;;8.17;85.62
71107;BME280;58763;47.982;11.516;2023-04-19T01:13:39;94506.88;;;8.14;85.83
71107;BME280;58763;47.982;11.516;2023-04-19T01:16:05;94501.19;;;8.11;86.28
71107;BME280;58763;47.982;11.516;2023-04-19T01:18:31;94498.56;;;8.21;85.90
71107;BME280;58763;47.982;11.516;2023-04-19T01:21:02;94504.19;;;8.14;86.38
71107;BME280;58763;47.982;11.516;2023-04-19T01:23:28;94502.59;;;8.23;86.11
71107;BME280;58763;47.982;11.516;2023-04-19T01:25:54;94498.91;;;8.34;85.52
71107;BME280;58763;47.982;11.516;2023-04-19T01:28:20;94503.38;;;8.24;85.22
71107;BME280;58763;47.982;11.516;2023-04-19T01:30:46;94498.09;;;8.34;85.64
71107;BME280;58763;47.982;11.516;2023-04-19T01:33:11;94491.00;;;8.23;85.84
71107;BME280;58763;47.982;11.516;2023-04-19T01:35:37;94493.94;;;8.21;85.36
71107;BME280;58763;47.982;11.516;2023-04-19T01:38:02;94483.22;;;8.26;85.76
71107;BME280;58763;47.982;11.516;2023-04-19T01:40:29;94489.44;;;8.27;85.36
71107;BME280;58763;47.982;11.516;2023-04-19T01:42:55;94486.75;;;8.27;85.49
71107;BME280;58763;47.982;11.516;2023-04-19T01:45:20;94484.00;;;8.22;85.82
71107;BME280;58763;47.982;11.516;2023-04-19T01:47:46;94490.19;;;8.22;85.65
71107;BME280;58763;47.982;11.516;2023-04-19T01:50:11;94475.47;;;8.35;85.02
71107;BME280;58763;47.982;11.516;2023-04-19T01:52:36;94476.78;;;8.27;85.46
71107;BME280;58763;47.982;11.516;2023-04-19T01:55:02;94471.41;;;8.27;85.41
71107;BME280;58763;47.982;11.516;2023-04-19T01:57:27;94474.09;;;8.27;85.58
71107;BME280;58763;47.982;11.516;2023-04-19T01:59:53;94470.06;;;8.30;85.22
71107;BME280;58763;47.982;11.516;2023-04-19T02:02:18;94466.03;;;8.32;84.85
71107;BME280;58763;47.982;11.516;2023-04-19T02:04:44;94470.56;;;8.27;85.29
71107;BME280;58763;47.982;11.516;2023-04-19T02:07:10;94471.16;;;8.34;84.87
71107;BME280;58763;47.982;11.516;2023-04-19T02:09:36;94466.81;;;8.28;84.90
71107;BME280;58763;47.982;11.516;2023-04-19T02:12:04;94465.22;;;8.32;84.37
71107;BME280;58763;47.982;11.516;2023-04-19T02:14:29;94468.38;;;8.19;84.83
71107;BME280;58763;47.982;11.516;2023-04-19T02:16:55;94460.09;;;8.30;84.80
71107;BME280;58763;47.982;11.516;2023-04-19T02:19:21;94453.03;;;8.24;84.79
71107;BME280;58763;47.982;11.516;2023-04-19T02:21:46;94450.06;;;8.21;84.99
71107;BME280;58763;47.982;11.516;2023-04-19T02:24:12;94449.84;;;8.27;84.48
71107;BME280;58763;47.982;11.516;2023-04-19T02:26:38;94454.41;;;8.27;84.26
71107;BME280;58763;47.982;11.516;2023-04-19T02:29:04;94453.31;;;8.23;84.59
71107;BME280;58763;47.982;11.516;2023-04-19T02:31:29;94443.59;;;8.22;84.98
71107;BME280;58763;47.982;11.516;2023-04-19T02:33:55;94442.53;;;8.23;84.48
71107;BME280;58763;47.982;11.516;2023-04-19T02:36:20;94448.41;;;8.15;85.24
71107;BME280;58763;47.982;11.516;2023-04-19T02:38:46;94436.84;;;8.14;85.27
71107;BME280;58763;47.982;11.516;2023-04-19T02:41:11;94440.31;;;8.15;85.37
71107;BME280;58763;47.982;11.516;2023-04-19T02:43:36;94448.69;;;8.13;85.44
71107;BME280;58763;47.982;11.516;2023-04-19T02:46:02;94439.28;;;8.21;85.24
71107;BME280;58763;47.982;11.516;2023-04-19T02:48:28;94435.75;;;8.15;85.20
71107;BME280;58763;47.982;11.516;2023-04-19T02:50:53;94428.75;;;8.19;85.02
71107;BME280;58763;47.982;11.516;2023-04-19T02:53:19;94432.00;;;8.16;85.05
71107;BME280;58763;47.982;11.516;2023-04-19T02:55:44;94428.22;;;8.17;84.76
71107;BME280;58763;47.982;11.516;2023-04-19T02:58:10;94423.94;;;8.16;85.54
71107;BME280;58763;47.982;11.516;2023-04-19T03:00:35;94415.59;;;8.23;85.14
71107;BME280;58763;47.982;11.516;2023-04-19T03:03:01;94416.69;;;8.27;84.90
71107;BME280;58763;47.982;11.516;2023-04-19T03:05:28;94423.38;;;8.24;84.54
71107;BME280;58763;47.982;11.516;2023-04-19T03:07:54;94419.63;;;8.20;84.88
71107;BME280;58763;47.982;11.516;2023-04-19T03:10:19;94417.97;;;8.19;84.86
71107;BME280;58763;47.982;11.516;2023-04-19T03:12:45;94421.50;;;8.20;85.09
71107;BME280;58763;47.982;11.516;2023-04-19T03:15:11;94420.69;;;8.14;85.18
71107;BME280;58763;47.982;11.516;2023-04-19T03:17:36;94419.34;;;8.22;85.25
71107;BME280;58763;47.982;11.516;2023-04-19T03:20:02;94418.56;;;8.26;84.76
71107;BME280;58763;47.982;11.516;2023-04-19T03:22:28;94415.84;;;8.16;84.87
71107;BME280;58763;47.982;11.516;2023-04-19T03:24:54;94413.69;;;8.18;85.38
71107;BME280;58763;47.982;11.516;2023-04-19T03:27:21;94407.75;;;8.11;85.43
71107;BME280;58763;47.982;11.516;2023-04-19T03:29:46;94410.72;;;8.20;85.10
71107;BME280;58763;47.982;11.516;2023-04-19T03:32:12;94406.16;;;8.20;85.45
71107;BME280;58763;47.982;11.516;2023-04-19T03:34:37;94399.91;;;8.10;85.55
71107;BME280;58763;47.982;11.516;2023-04-19T03:37:02;94403.41;;;8.10;85.82
71107;BME280;58763;47.982;11.516;2023-04-19T03:39:28;94398.03;;;8.10;85.94
71107;BME280;58763;47.982;11.516;2023-04-19T03:41:53;94398.03;;;8.10;85.66
71107;BME280;58763;47.982;11.516;2023-04-19T03:44:19;94397.50;;;8.08;86.39
71107;BME280;58763;47.982;11.516;2023-04-19T03:46:44;94397.22;;;8.05;86.24
71107;BME280;58763;47.982;11.516;2023-04-19T03:49:10;94400.19;;;8.08;86.83
71107;BME280;58763;47.982;11.516;2023-04-19T03:51:36;94398.56;;;8.02;86.45
71107;BME280;58763;47.982;11.516;2023-04-19T03:54:01;94402.88;;;8.08;86.51
71107;BME280;58763;47.982;11.516;2023-04-19T03:56:27;94394.53;;;8.10;86.55
71107;BME280;58763;47.982;11.516;2023-04-19T03:58:53;94402.31;;;8.01;86.84
71107;BME280;58763;47.982;11.516;2023-04-19T04:01:22;94390.72;;;8.01;87.00
71107;BME280;58763;47.982;11.516;2023-04-19T04:03:48;94397.22;;;8.10;86.64
71107;BME280;58763;47.982;11.516;2023-04-19T04:06:14;94392.88;;;7.99;86.63
71107;BME280;58763;47.982;11.516;2023-04-19T04:08:39;94398.25;;;7.94;87.06
71107;BME280;58763;47.982;11.516;2023-04-19T04:11:05;94393.41;;;8.01;86.85
71107;BME280;58763;47.982;11.516;2023-04-19T04:13:30;94392.84;;;7.94;87.13
71107;BME280;58763;47.982;11.516;2023-04-19T04:15:56;94393.97;;;7.98;87.07
71107;BME280;58763;47.982;11.516;2023-04-19T04:18:21;94398.25;;;7.89;87.20
71107;BME280;58763;47.982;11.516;2023-04-19T04:20:47;94400.94;;;7.94;87.19
71107;BME280;58763;47.982;11.516;2023-04-19T04:23:13;94404.16;;;7.86;87.68
71107;BME280;58763;47.982;11.516;2023-04-19T04:25:39;94402.53;;;7.90;87.59
71107;BME280;58763;47.982;11.516;2023-04-19T04:28:04;94407.13;;;7.94;87.39
71107;BME280;58763;47.982;11.516;2023-04-19T04:30:30;94407.88;;;7.80;87.90
71107;BME280;58763;47.982;11.516;2023-04-19T04:32:56;94401.22;;;7.97;87.21
71107;BME280;58763;47.982;11.516;2023-04-19T04:35:23;94401.75;;;7.94;87.56
71107;BME280;58763;47.982;11.516;2023-04-19T04:37:48;94408.16;;;7.83;87.77
71107;BME280;58763;47.982;11.516;2023-04-19T04:40:14;94406.56;;;7.87;87.36
71107;BME280;58763;47.982;11.516;2023-04-19T04:42:40;94395.78;;;7.82;87.62
71107;BME280;58763;47.982;11.516;2023-04-19T04:45:06;94402.50;;;7.75;87.88
71107;BME280;58763;47.982;11.516;2023-04-19T04:47:32;94400.34;;;7.77;88.07
71107;BME280;58763;47.982;11.516;2023-04-19T04:49:59;94401.31;;;7.55;88.98
71107;BME280;58763;47.982;11.516;2023-04-19T04:52:24;94402.41;;;7.59;89.00
71107;BME280;58763;47.982;11.516;2023-04-19T04:54:50;94395.69;;;7.62;89.42
71107;BME280;58763;47.982;11.516;2023-04-19T04:57:15;94397.56;;;7.61;89.44
71107;BME280;58763;47.982;11.516;2023-04-19T04:59:41;94397.75;;;7.45;89.44
71107;BME280;58763;47.982;11.516;2023-04-19T05:02:06;94401.28;;;7.50;89.99
71107;BME280;58763;47.982;11.516;2023-04-19T05:04:32;94396.38;;;7.42;90.40
71107;BME280;58763;47.982;11.516;2023-04-19T05:06:57;94400.22;;;7.56;90.04
71107;BME280;58763;47.982;11.516;2023-04-19T05:09:23;94387.00;;;7.50;90.43
71107;BME280;58763;47.982;11.516;2023-04-19T05:11:48;94392.44;;;7.55;90.30
71107;BME280;58763;47.982;11.516;2023-04-19T05:14:15;94388.47;;;7.68;89.73
71107;BME280;58763;47.982;11.516;2023-04-19T05:16:41;94392.72;;;7.63;89.74
71107;BME280;58763;47.982;11.516;2023-04-19T05:19:06;94389.00;;;7.70;89.42
71107;BME280;58763;47.982;11.516;2023-04-19T05:21:32;94394.91;;;7.66;89.39
71107;BME280;58763;47.982;11.516;2023-04-19T05:23:58;94388.72;;;7.71;89.14
71107;BME280;58763;47.982;11.516;2023-04-19T05:26:24;94392.78;;;7.74;89.41
71107;BME280;58763;47.982;11.516;2023-04-19T05:28:49;94386.88;;;7.77;89.23
71107;BME280;58763;47.982;11.516;2023-04-19T05:31:14;94384.47;;;7.80;89.22
71107;BME280;58763;47.982;11.516;2023-04-19T05:33:40;94385.28;;;7.81;88.87
71107;BME280;58763;47.982;11.516;2023-04-19T05:36:06;94379.84;;;7.71;89.15
71107;BME280;58763;47.982;11.516;2023-04-19T05:38:32;94386.84;;;7.72;89.28
71107;BME280;58763;47.982;11.516;2023-04-19T05:40:58;94379.59;;;7.77;89.48
71107;BME280;58763;47.982;11.516;2023-04-19T05:43:23;94381.53;;;7.87;88.94
71107;BME280;58763;47.982;11.516;2023-04-19T05:45:49;94379.06;;;7.80;88.27
71107;BME280;58763;47.982;11.516;2023-04-19T05:48:14;94386.31;;;7.70;89.03
71107;BME280;58763;47.982;11.516;2023-04-19T05:50:40;94383.06;;;7.73;88.98
71107;BME280;58763;47.982;11.516;2023-04-19T05:53:05;94388.47;;;7.68;89.46
71107;BME280;58763;47.982;11.516;2023-04-19T05:55:31;94379.28;;;7.68;89.46
71107;BME280;58763;47.982;11.516;2023-04-19T05:57:57;94383.31;;;7.66;89.88
71107;BME280;58763;47.982;11.516;2023-04-19T06:00:23;94379.28;;;7.68;89.35
71107;BME280;58763;47.982;11.516;2023-04-19T06:02:48;94386.03;;;7.71;89.13
71107;BME280;58763;47.982;11.516;2023-04-19T06:05:14;94385.44;;;7.59;89.49
71107;BME280;58763;47.982;11.516;2023-04-19T06:07:39;94388.41;;;7.57;90.05
71107;BME280;58763;47.982;11.516;2023-04-19T06:10:06;94386.84;;;7.72;89.86
71107;BME280;58763;47.982;11.516;2023-04-19T06:12:31;94382.03;;;7.79;89.38
71107;BME280;58763;47.982;11.516;2023-04-19T06:14:57;94383.94;;;7.83;88.98
71107;BME280;58763;47.982;11.516;2023-04-19T06:17:22;94385.00;;;7.82;88.80
71107;BME280;58763;47.982;11.516;2023-04-19T06:19:53;94384.19;;;7.77;89.19
71107;BME280;58763;47.982;11.516;2023-04-19T06:22:19;94388.25;;;7.79;89.21
71107;BME280;58763;47.982;11.516;2023-04-19T06:24:46;94377.22;;;7.86;88.80
71107;BME280;58763;47.982;11.516;2023-04-19T06:27:11;94383.06;;;7.62;89.14
71107;BME280;58763;47.982;11.516;2023-04-19T06:29:38;94375.00;;;7.68;89.55
71107;BME280;58763;47.982;11.516;2023-04-19T06:32:03;94379.06;;;7.80;88.99
71107;BME280;58763;47.982;11.516;2023-04-19T06:34:29;94378.25;;;7.70;89.14
71107;BME280;58763;47.982;11.516;2023-04-19T06:36:54;94380.38;;;7.68;89.33
71107;BME280;58763;47.982;11.516;2023-04-19T06:39:21;94378.44;;;7.53;89.94
71107;BME280;58763;47.982;11.516;2023-04-19T06:41:46;94374.13;;;7.57;90.44
71107;BME280;58763;47.982;11.516;2023-04-19T06:44:12;94383.84;;;7.58;90.09
71107;BME280;58763;47.982;11.516;2023-04-19T06:46:38;94383.88;;;7.68;89.13
71107;BME280;58763;47.982;11.516;2023-04-19T06:49:03;94380.38;;;7.68;89.23
71107;BME280;58763;47.982;11.516;2023-04-19T06:51:29;94384.13;;;7.66;89.26
71107;BME280;58763;47.982;11.516;2023-04-19T06:53:55;94379.06;;;7.70;89.46
71107;BME280;58763;47.982;11.516;2023-04-19T06:59:05;94382.78;;;7.64;89.16
71107;BME280;58763;47.982;11.516;2023-04-19T07:01:30;94378.75;;;7.66;89.51
71107;BME280;58763;47.982;11.516;2023-04-19T07:03:56;94384.69;;;7.68;89.32
71107;BME280;58763;47.982;11.516;2023-04-19T07:06:21;94380.44;;;7.83;89.12
71107;BME280;58763;47.982;11.516;2023-04-19T07:08:47;94375.31;;;7.81;89.29
71107;BME280;58763;47.982;11.516;2023-04-19T07:11:12;94376.13;;;7.87;88.79
71107;BME280;58763;47.982;11.516;2023-04-19T07:13:38;94374.56;;;7.91;88.77
71107;BME280;58763;47.982;11.516;2023-04-19T07:16:04;94378.91;;;8.02;88.45
71107;BME280;58763;47.982;11.516;2023-04-19T07:18:29;94377.00;;;7.97;88.84
71107;BME280;58763;47.982;11.516;2023-04-19T07:20:55;94377.00;;;7.97;88.46
71107;BME280;58763;47.982;11.516;2023-04-19T07:23:20;94380.50;;;7.98;88.39
71107;BME280;58763;47.982;11.516;2023-04-19T07:25:46;94374.84;;;7.99;88.25
71107;BME280;58763;47.982;11.516;2023-04-19T07:28:11;94372.44;;;8.08;88.53
71107;BME280;58763;47.982;11.516;2023-04-19T07:30:37;94372.19;;;8.09;88.04
71107;BME280;58763;47.982;11.516;2023-04-19T07:33:02;94371.09;;;8.00;87.49
71107;BME280;58763;47.982;11.516;2023-04-19T07:35:29;94374.31;;;8.02;88.25
71107;BME280;58763;47.982;11.516;2023-04-19T07:37:55;94374.06;;;8.09;88.20
71107;BME280;58763;47.982;11.516;2023-04-19T07:40:20;94367.03;;;8.03;88.13
71107;BME280;58763;47.982;11.516;2023-04-19T07:42:45;94367.41;;;8.31;87.71
71107;BME280;58763;47.982;11.516;2023-04-19T07:45:11;94365.81;;;8.30;87.50
71107;BME280;58763;47.982;11.516;2023-04-19T07:47:37;94368.13;;;8.07;87.05
71107;BME280;58763;47.982;11.516;2023-04-19T07:50:02;94369.72;;;7.98;87.78
71107;BME280;58763;47.982;11.516;2023-04-19T07:52:30;94360.88;;;8.07;87.45
71107;BME280;58763;47.982;11.516;2023-04-19T07:54:55;94368.41;;;8.00;87.37
71107;BME280;58763;47.982;11.516;2023-04-19T07:57:21;94364.88;;;8.00;87.98
71107;BME280;58763;47.982;11.516;2023-04-19T07:59:47;94367.56;;;7.95;87.83
71107;BME280;58763;47.982;11.516;2023-04-19T08:02:13;94362.75;;;8.07;88.05
71107;BME280;58763;47.982;11.516;2023-04-19T08:04:40;94360.63;;;8.19;87.05
71107;BME280;58763;47.982;11.516;2023-04-19T08:07:06;94368.16;;;8.22;87.23
71107;BME280;58763;47.982;11.516;2023-04-19T08:09:33;94362.50;;;8.18;87.17
71107;BME280;58763;47.982;11.516;2023-04-19T08:11:59;94364.91;;;8.15;87.39
71107;BME280;58763;47.982;11.516;2023-04-19T08:14:25;94357.66;;;8.20;86.81
71107;BME280;58763;47.982;11.516;2023-04-19T08:16:51;94358.47;;;8.16;86.85
71107;BME280;58763;47.982;11.516;2023-04-19T08:19:16;94360.63;;;8.19;86.76
71107;BME280;58763;47.982;11.516;2023-04-19T08:21:42;94360.13;;;8.27;87.34
71107;BME280;58763;47.982;11.516;2023-04-19T08:24:07;94348.56;;;8.42;86.92
71107;BME280;58763;47.982;11.516;2023-04-19T08:26:33;94342.09;;;8.48;86.67
71107;BME280;58763;47.982;11.516;2023-04-19T08:28:58;94349.94;;;8.64;86.12
71107;BME280;58763;47.982;11.516;2023-04-19T08:31:24;94348.31;;;8.68;85.43
71107;BME280;58763;47.982;11.516;2023-04-19T08:33:49;94345.06;;;8.66;85.63
71107;BME280;58763;47.982;11.516;2023-04-19T08:36:15;94344.00;;;8.77;85.18
71107;BME280;58763;47.982;11.516;2023-04-19T08:38:40;94335.09;;;8.87;84.85
71107;BME280;58763;47.982;11.516;2023-04-19T08:41:06;94333.72;;;8.94;84.27
71107;BME280;58763;47.982;11.516;2023-04-19T08:43:34;94336.69;;;9.08;83.66
71107;BME280;58763;47.982;11.516;2023-04-19T08:46:01;94336.97;;;9.01;83.90
71107;BME280;58763;47.982;11.516;2023-04-19T08:48:28;94336.97;;;9.07;84.31
71107;BME280;58763;47.982;11.516;2023-04-19T08:50:55;94338.31;;;9.09;84.69
71107;BME280;58763;47.982;11.516;2023-04-19T08:53:22;94336.16;;;9.11;84.50
71107;BME280;58763;47.982;11.516;2023-04-19T08:55:48;94335.03;;;9.17;83.47
71107;BME280;58763;47.982;11.516;2023-04-19T08:58:14;94330.75;;;9.21;83.85
71107;BME280;58763;47.982;11.516;2023-04-19T09:00:39;94334.25;;;9.22;83.00
71107;BME280;58763;47.982;11.516;2023-04-19T09:03:06;94329.09;;;9.30;82.86
71107;BME280;58763;47.982;11.516;2023-04-19T09:05:33;94332.59;;;9.36;82.65
71107;BME280;58763;47.982;11.516;2023-04-19T09:08:21;94323.09;;;9.43;82.25
71107;BME280;58763;47.982;11.516;2023-04-19T09:11:00;94324.75;;;9.34;82.84
71107;BME280;58763;47.982;11.516;2023-04-19T09:13:27;94328.56;;;9.28;83.52
71107;BME280;58763;47.982;11.516;2023-04-19T09:15:53;94326.16;;;9.17;83.21
71107;BME280;58763;47.982;11.516;2023-04-19T09:18:22;94325.34;;;9.21;83.33
71107;BME280;58763;47.982;11.516;2023-04-19T09:20:49;94318.06;;;9.22;83.26
71107;BME280;58763;47.982;11.516;2023-04-19T09:23:17;94319.38;;;9.24;83.18
71107;BME280;58763;47.982;11.516;2023-04-19T09:28:19;94313.75;;;9.11;83.66
71107;BME280;58763;47.982;11.516;2023-04-19T09:30:44;94314.28;;;9.18;83.88
71107;BME280;58763;47.982;11.516;2023-04-19T09:33:11;94316.16;;;9.17;83.79
71107;BME280;58763;47.982;11.516;2023-04-19T09:35:45;94309.66;;;9.33;83.42
71107;BME280;58763;47.982;11.516;2023-04-19T09:38:12;94307.22;;;9.32;82.53
71107;BME280;58763;47.982;11.516;2023-04-19T09:40:39;94306.97;;;9.33;82.91
71107;BME280;58763;47.982;11.516;2023-04-19T09:43:05;94308.56;;;9.34;82.88
71107;BME280;58763;47.982;11.516;2023-04-19T09:45:40;94299.41;;;9.35;82.95
71107;BME280;58763;47.982;11.516;2023-04-19T09:48:07;94294.53;;;9.32;83.34
71107;BME280;58763;47.982;11.516;2023-04-19T09:50:34;94295.63;;;9.31;82.83
71107;BME280;58763;47.982;11.516;2023-04-19T09:53:00;94291.84;;;9.37;83.21
71107;BME280;58763;47.982;11.516;2023-04-19T09:55:26;94299.63;;;9.49;83.43
71107;BME280;58763;47.982;11.516;2023-04-19T09:57:52;94290.19;;;9.46;82.74
71107;BME280;58763;47.982;11.516;2023-04-19T10:00:18;94291.53;;;9.44;82.92
71107;BME280;58763;47.982;11.516;2023-04-19T10:02:46;94294.22;;;9.44;82.44
71107;BME280;58763;47.982;11.516;2023-04-19T10:05:19;94291.28;;;9.40;82.38
71107;BME280;58763;47.982;11.516;2023-04-19T10:07:45;94286.16;;;9.34;82.83
71107;BME280;58763;47.982;11.516;2023-04-19T10:10:14;94285.34;;;9.38;82.65
71107;BME280;58763;47.982;11.516;2023-04-19T10:12:41;94277.25;;;9.38;82.23
71107;BME280;58763;47.982;11.516;2023-04-19T10:15:10;94275.66;;;9.37;82.79
71107;BME280;58763;47.982;11.516;2023-04-19T10:17:36;94282.69;;;9.33;82.96
71107;BME280;58763;47.982;11.516;2023-04-19T10:20:20;94277.00;;;9.35;81.98
71107;BME280;58763;47.982;11.516;2023-04-19T10:22:47;94267.94;;;9.00;83.45
71107;BME280;58763;47.982;11.516;2023-04-19T10:25:14;94272.28;;;8.81;84.76
71107;BME280;58763;47.982;11.516;2023-04-19T10:27:42;94273.34;;;8.85;83.86
71107;BME280;58763;47.982;11.516;2023-04-19T10:30:18;94267.44;;;8.68;85.37
71107;BME280;58763;47.982;11.516;2023-04-19T10:32:46;94266.09;;;8.76;85.43
71107;BME280;58763;47.982;11.516;2023-04-19T10:35:19;94260.69;;;8.91;84.50
71107;BME280;58763;47.982;11.516;2023-04-19T10:38:05;94257.97;;;8.96;83.52
71107;BME280;58763;47.982;11.516;2023-04-19T10:43:23;94248.50;;;8.98;83.91
71107;BME280;58763;47.982;11.516;2023-04-19T10:45:50;94244.50;;;8.91;85.13
71107;BME280;58763;47.982;11.516;2023-04-19T10:48:37;94241.50;;;9.08;84.28
71107;BME280;58763;47.982;11.516;2023-04-19T10:51:16;94245.84;;;8.83;85.66
71107;BME280;58763;47.982;11.516;2023-04-19T10:53:44;94240.38;;;9.09;85.25
71107;BME280;58763;47.982;11.516;2023-04-19T10:56:10;94230.63;;;9.23;83.35
71107;BME280;58763;47.982;11.516;2023-04-19T11:01:43;94230.09;;;9.21;82.53
71107;BME280;58763;47.982;11.516;2023-04-19T11:04:11;94231.75;;;9.07;83.14
71107;BME280;58763;47.982;11.516;2023-04-19T11:09:37;94212.34;;;9.15;84.24
71107;BME280;58763;47.982;11.516;2023-04-19T11:12:07;94213.97;;;9.05;83.92
71107;BME280;58763;47.982;11.516;2023-04-19T11:14:35;94210.66;;;9.29;84.41
71107;BME280;58763;47.982;11.516;2023-04-19T11:17:03;94208.19;;;9.37;83.64
71107;BME280;58763;47.982;11.516;2023-04-19T11:19:37;94199.63;;;9.15;83.82
71107;BME280;58763;47.982;11.516;2023-04-19T11:22:03;94202.91;;;9.12;83.15
71107;BME280;58763;47.982;11.516;2023-04-19T11:24:28;94196.03;;;9.35;82.31
71107;BME280;58763;47.982;11.516;2023-04-19T11:26:55;94190.56;;;9.50;81.57
71107;BME280;58763;47.982;11.516;2023-04-19T11:29:21;94185.53;;;9.77;81.57
71107;BME280;58763;47.982;11.516;2023-04-19T11:31:46;94187.09;;;9.88;79.85
71107;BME280;58763;47.982;11.516;2023-04-19T11:34:12;94169.72;;;9.99;79.91
71107;BME280;58763;47.982;11.516;2023-04-19T11:36:52;94177.44;;;10.11;78.51
71107;BME280;58763;47.982;11.516;2023-04-19T11:39:18;94169.94;;;10.08;78.32
71107;BME280;58763;47.982;11.516;2023-04-19T11:41:44;94169.59;;;10.19;78.42
71107;BME280;58763;47.982;11.516;2023-04-19T11:44:20;94175.22;;;10.23;77.49
71107;BME280;58763;47.982;11.516;2023-04-19T11:46:59;94170.84;;;10.27;77.33
71107;BME280;58763;47.982;11.516;2023-04-19T11:49:30;94159.31;;;10.21;77.31
71107;BME280;58763;47.982;11.516;2023-04-19T11:51:57;94160.56;;;9.95;78.29
71107;BME280;58763;47.982;11.516;2023-04-19T11:54:23;94155.66;;;10.02;78.39
71107;BME280;58763;47.982;11.516;2023-04-19T11:57:03;94159.66;;;10.10;78.30
71107;BME280;58763;47.982;11.516;2023-04-19T11:59:31;94160.41;;;10.15;76.44
71107;BME280;58763;47.982;11.516;2023-04-19T12:02:08;94160.63;;;10.24;75.62
71107;BME280;58763;47.982;11.516;2023-04-19T12:04:33;94163.59;;;10.22;76.19
71107;BME280;58763;47.982;11.516;2023-04-19T12:07:00;94147.81;;;10.06;76.78
71107;BME280;58763;47.982;11.516;2023-04-19T12:09:26;94158.31;;;10.07;77.97
71107;BME280;58763;47.982;11.516;2023-04-19T12:11:52;94149.09;;;10.13;78.18
71107;BME280;58763;47.982;11.516;2023-04-19T12:14:19;94153.69;;;10.13;78.43
71107;BME280;58763;47.982;11.516;2023-04-19T12:17:05;94150.97;;;10.13;78.67
71107;BME280;58763;47.982;11.516;2023-04-19T12:19:43;94146.06;;;10.20;78.69
71107;BME280;58763;47.982;11.516;2023-04-19T12:22:10;94151.25;;;10.16;79.28
71107;BME280;58763;47.982;11.516;2023-04-19T12:24:36;94146.91;;;10.15;80.24
71107;BME280;58763;47.982;11.516;2023-04-19T12:27:02;94153.41;;;10.14;79.62
71107;BME280;58763;47.982;11.516;2023-04-19T12:29:28;94149.91;;;10.14;80.19
71107;BME280;58763;47.982;11.516;2023-04-19T12:31:53;94149.25;;;10.27;80.06
71107;BME280;58763;47.982;11.516;2023-04-19T12:34:19;94139.56;;;10.21;79.50
71107;BME280;58763;47.982;11.516;2023-04-19T12:36:45;94139.25;;;10.27;79.12
71107;BME280;58763;47.982;11.516;2023-04-19T12:39:10;94138.28;;;10.13;79.74
71107;BME280;58763;47.982;11.516;2023-04-19T12:41:36;94133.44;;;10.10;80.49
71107;BME280;58763;47.982;11.516;2023-04-19T12:44:01;94139.84;;;10.24;80.48
71107;BME280;58763;47.982;11.516;2023-04-19T12:46:27;94148.53;;;10.16;79.25
71107;BME280;58763;47.982;11.516;2023-04-19T12:48:52;94141.31;;;10.02;77.36
71107;BME280;58763;47.982;11.516;2023-04-19T12:51:18;94133.75;;;9.70;79.03
71107;BME280;58763;47.982;11.516;2023-04-19T12:53:48;94138.19;;;9.51;79.71
71107;BME280;58763;47.982;11.516;2023-04-19T12:56:14;94136.53;;;9.55;79.45
71107;BME280;58763;47.982;11.516;2023-04-19T12:58:40;94138.00;;;9.42;80.23
71107;BME280;58763;47.982;11.516;2023-04-19T13:01:06;94138.84;;;9.33;80.71
71107;BME280;58763;47.982;11.516;2023-04-19T13:03:32;94135.09;;;9.29;81.54
71107;BME280;58763;47.982;11.516;2023-04-19T13:06:03;94121.91;;;9.22;82.13
71107;BME280;58763;47.982;11.516;2023-04-19T13:08:30;94129.78;;;9.09;81.29
71107;BME280;58763;47.982;11.516;2023-04-19T13:10:55;94131.16;;;9.06;81.72